createdAt,value
2023-02-07T00:01:26.236Z,-0.55
2023-02-07T00:03:31.362Z,-0.59
2023-02-07T00:05:40.731Z,-0.54
2023-02-07T00:07:45.556Z,-0.55
2023-02-07T00:09:51.068Z,-0.57
2023-02-07T00:11:56.087Z,-0.57
2023-02-07T00:14:02.715Z,-0.62
2023-02-07T00:16:12.295Z,-0.67
2023-02-07T00:18:17.320Z,-0.67
2023-02-07T00:20:22.444Z,-0.70
2023-02-07T00:22:31.367Z,-0.74
2023-02-07T00:24:36.785Z,-0.71
2023-02-07T00:26:41.834Z,-0.72
2023-02-07T00:28:48.249Z,-0.72
2023-02-07T00:30:53.661Z,-0.71
2023-02-07T00:32:58.727Z,-0.75
2023-02-07T00:35:04.225Z,-0.76
2023-02-07T00:37:10.011Z,-0.77
2023-02-07T00:39:20.468Z,-0.73
2023-02-07T00:41:25.457Z,-0.75
2023-02-07T00:43:33.083Z,-0.73
2023-02-07T00:45:38.882Z,-0.78
2023-02-07T00:47:44.166Z,-0.85
2023-02-07T00:49:49.215Z,-0.86
2023-02-07T00:51:55.370Z,-0.89
2023-02-07T00:54:00.986Z,-0.86
2023-02-07T00:56:09.420Z,-0.93
2023-02-07T00:58:16.310Z,-0.96
2023-02-07T01:00:21.760Z,-0.94
2023-02-07T01:02:26.701Z,-0.92
2023-02-07T01:04:31.719Z,-0.96
2023-02-07T01:06:37.370Z,-0.98
2023-02-07T01:08:42.667Z,-1.00
2023-02-07T01:10:48.694Z,-1.01
2023-02-07T01:12:57.643Z,-1.00
2023-02-07T01:15:02.694Z,-0.97
2023-02-07T01:17:07.611Z,-0.89
2023-02-07T01:19:15.061Z,-0.81
2023-02-07T01:21:21.634Z,-0.81
2023-02-07T01:23:27.855Z,-0.84
2023-02-07T01:25:32.990Z,-0.87
2023-02-07T01:27:38.834Z,-0.81
2023-02-07T01:29:48.600Z,-0.81
2023-02-07T01:31:55.005Z,-0.79
2023-02-07T01:34:04.169Z,-0.78
2023-02-07T01:36:11.625Z,-0.76
2023-02-07T01:38:16.687Z,-0.75
2023-02-07T01:40:21.872Z,-0.75
2023-02-07T01:42:30.130Z,-0.79
2023-02-07T01:45:06.889Z,-0.84
2023-02-07T01:47:18.476Z,-0.84
2023-02-07T01:49:27.620Z,-0.82
2023-02-07T01:51:36.960Z,-0.85
2023-02-07T01:53:43.864Z,-0.86
2023-02-07T01:55:51.491Z,-0.90
2023-02-07T01:57:59.500Z,-0.86
2023-02-07T02:00:11.954Z,-0.88
2023-02-07T02:02:20.500Z,-0.86
2023-02-07T02:04:26.017Z,-0.88
2023-02-07T02:06:33.905Z,-0.86
2023-02-07T02:08:40.364Z,-0.88
2023-02-07T02:11:08.335Z,-0.92
2023-02-07T02:13:24.262Z,-0.91
2023-02-07T02:15:43.488Z,-0.93
2023-02-07T02:18:00.949Z,-0.95
2023-02-07T02:20:47.786Z,-0.99
2023-02-07T02:23:30.407Z,-1.04
2023-02-07T02:26:01.767Z,-1.10
2023-02-07T02:28:29.869Z,-1.08
2023-02-07T02:30:59.640Z,-1.09
2023-02-07T02:33:37.204Z,-1.12
2023-02-07T02:35:53.704Z,-1.13
2023-02-07T02:38:06.989Z,-1.14
2023-02-07T02:40:17.036Z,-1.18
2023-02-07T02:42:30.850Z,-1.22
2023-02-07T02:44:41.137Z,-1.23
2023-02-07T02:46:48.736Z,-1.29
2023-02-07T02:48:55.740Z,-1.30
2023-02-07T02:51:04.449Z,-1.29
2023-02-07T02:53:09.486Z,-1.27
2023-02-07T02:55:15.178Z,-1.24
2023-02-07T02:57:38.205Z,-1.23
2023-02-07T03:00:10.106Z,-1.26
2023-02-07T03:02:30.086Z,-1.25
2023-02-07T03:05:00.565Z,-1.24
2023-02-07T03:07:26.430Z,-1.09
2023-02-07T03:09:41.146Z,-1.06
2023-02-07T03:11:58.018Z,-1.04
2023-02-07T03:14:10.321Z,-1.02
2023-02-07T03:16:21.502Z,-1.00
2023-02-07T03:18:32.611Z,-0.90
2023-02-07T03:20:41.848Z,-0.78
2023-02-07T03:22:50.507Z,-0.70
2023-02-07T03:25:01.920Z,-0.70
2023-02-07T03:27:15.432Z,-0.74
2023-02-07T03:29:22.790Z,-0.72
2023-02-07T03:31:30.069Z,-0.63
2023-02-07T03:33:36.461Z,-0.64
2023-02-07T03:35:45.487Z,-0.71
2023-02-07T03:37:56.104Z,-0.75
2023-02-07T03:40:01.006Z,-0.61
2023-02-07T03:42:10.220Z,-0.59
2023-02-07T03:44:18.175Z,-0.53
2023-02-07T03:46:23.217Z,-0.52
2023-02-07T03:48:28.581Z,-0.56
2023-02-07T03:50:37.358Z,-0.65
2023-02-07T03:52:42.391Z,-0.72
2023-02-07T03:54:49.882Z,-0.77
2023-02-07T03:56:54.747Z,-0.85
2023-02-07T03:59:01.044Z,-0.83
2023-02-07T04:01:06.294Z,-0.83
2023-02-07T04:03:11.190Z,-0.85
2023-02-07T04:05:16.214Z,-0.82
2023-02-07T04:07:21.244Z,-0.73
2023-02-07T04:09:26.384Z,-0.70
2023-02-07T04:11:35.232Z,-0.65
2023-02-07T04:13:40.446Z,-0.65
2023-02-07T04:15:45.392Z,-0.58
2023-02-07T04:17:51.104Z,-0.59
2023-02-07T04:19:56.445Z,-0.54
2023-02-07T04:22:04.186Z,-0.52
2023-02-07T04:24:09.959Z,-0.41
2023-02-07T04:26:16.148Z,-0.41
2023-02-07T04:28:23.778Z,-0.41
2023-02-07T04:30:28.694Z,-0.30
2023-02-07T04:32:33.852Z,-0.18
2023-02-07T04:34:41.829Z,-0.24
2023-02-07T04:36:46.785Z,-0.28
2023-02-07T04:38:51.657Z,-0.30
2023-02-07T04:41:00.589Z,-0.33
2023-02-07T04:43:06.254Z,-0.35
2023-02-07T04:45:16.282Z,-0.42
2023-02-07T04:47:21.364Z,-0.32
2023-02-07T04:49:26.345Z,-0.24
2023-02-07T04:51:32.820Z,-0.18
2023-02-07T04:53:38.213Z,-0.22
2023-02-07T04:55:43.042Z,-0.33
2023-02-07T04:57:49.828Z,-0.29
2023-02-07T04:59:54.756Z,-0.26
2023-02-07T05:02:02.333Z,-0.23
2023-02-07T05:04:07.732Z,-0.16
2023-02-07T05:06:14.667Z,-0.18
2023-02-07T05:08:19.752Z,-0.19
2023-02-07T05:10:24.835Z,-0.23
2023-02-07T05:12:29.741Z,-0.24
2023-02-07T05:14:41.998Z,-0.24
2023-02-07T05:16:47.054Z,-0.17
2023-02-07T05:18:54.623Z,-0.19
2023-02-07T05:21:02.665Z,-0.12
2023-02-07T05:23:08.413Z,-0.16
2023-02-07T05:25:16.179Z,-0.19
2023-02-07T05:27:21.045Z,-0.24
2023-02-07T05:29:25.954Z,-0.22
2023-02-07T05:31:45.416Z,-0.22
2023-02-07T05:33:52.318Z,-0.33
2023-02-07T05:36:00.098Z,-0.33
2023-02-07T05:38:06.537Z,-0.42
2023-02-07T05:40:14.134Z,-0.35
2023-02-07T05:42:19.324Z,-0.41
2023-02-07T05:44:24.362Z,-0.54
2023-02-07T05:46:29.243Z,-0.61
2023-02-07T05:48:35.227Z,-0.70
2023-02-07T05:50:42.640Z,-0.79
2023-02-07T05:52:51.657Z,-0.86
2023-02-07T05:54:56.776Z,-0.91
2023-02-07T05:57:02.316Z,-0.93
2023-02-07T05:59:07.046Z,-0.87
2023-02-07T06:01:12.638Z,-0.90
2023-02-07T06:03:17.648Z,-0.99
2023-02-07T06:05:23.387Z,-1.01
2023-02-07T06:07:28.564Z,-1.02
2023-02-07T06:09:39.087Z,-0.99
2023-02-07T06:11:45.520Z,-0.98
2023-02-07T06:13:52.187Z,-1.01
2023-02-07T06:15:59.688Z,-1.09
2023-02-07T06:18:07.573Z,-1.15
2023-02-07T06:20:14.007Z,-1.15
2023-02-07T06:22:19.239Z,-1.19
2023-02-07T06:24:24.489Z,-1.21
2023-02-07T06:26:32.037Z,-1.23
2023-02-07T06:28:36.942Z,-1.25
2023-02-07T06:30:42.065Z,-1.29
2023-02-07T06:32:47.926Z,-1.31
2023-02-07T06:34:52.815Z,-1.34
2023-02-07T06:36:57.678Z,-1.38
2023-02-07T06:39:03.757Z,-1.43
2023-02-07T06:41:12.587Z,-1.43
2023-02-07T06:43:20.038Z,-1.41
2023-02-07T06:45:25.066Z,-1.37
2023-02-07T06:47:30.059Z,-1.43
2023-02-07T06:49:35.212Z,-1.38
2023-02-07T06:51:40.303Z,-1.37
2023-02-07T06:53:45.514Z,-1.32
2023-02-07T06:55:52.140Z,-1.28
2023-02-07T06:57:58.294Z,-1.26
2023-02-07T07:00:06.408Z,-1.24
2023-02-07T07:02:14.390Z,-1.20
2023-02-07T07:04:19.288Z,-1.09
2023-02-07T07:06:24.244Z,-0.97
2023-02-07T07:08:30.028Z,-0.97
2023-02-07T07:10:35.131Z,-0.86
2023-02-07T07:12:40.421Z,-0.79
2023-02-07T07:14:48.391Z,-0.73
2023-02-07T07:16:56.881Z,-0.71
2023-02-07T07:19:02.479Z,-0.74
2023-02-07T07:21:07.956Z,-0.78
2023-02-07T07:23:12.998Z,-0.76
2023-02-07T07:25:20.050Z,-0.77
2023-02-07T07:27:24.851Z,-0.78
2023-02-07T07:29:29.683Z,-0.81
2023-02-07T07:31:36.835Z,-0.80
2023-02-07T07:33:44.492Z,-0.82
2023-02-07T07:35:49.903Z,-0.75
2023-02-07T07:37:54.775Z,-0.70
2023-02-07T07:40:00.430Z,-0.67
2023-02-07T07:42:05.514Z,-0.70
2023-02-07T07:44:10.445Z,-0.79
2023-02-07T07:46:16.667Z,-0.82
2023-02-07T07:48:21.897Z,-0.83
2023-02-07T07:50:29.513Z,-0.81
2023-02-07T07:52:35.270Z,-0.82
2023-02-07T07:54:40.486Z,-0.81
2023-02-07T07:56:45.557Z,-0.78
2023-02-07T07:58:51.984Z,-0.71
2023-02-07T08:00:56.865Z,-0.70
2023-02-07T08:03:02.324Z,-0.67
2023-02-07T08:05:07.765Z,-0.61
2023-02-07T08:07:18.542Z,-0.67
2023-02-07T08:09:24.375Z,-0.69
2023-02-07T08:11:29.482Z,-0.60
2023-02-07T08:13:36.544Z,-0.63
2023-02-07T08:15:41.988Z,-0.57
2023-02-07T08:17:47.281Z,-0.55
2023-02-07T08:19:52.151Z,-0.54
2023-02-07T08:21:57.333Z,-0.62
2023-02-07T08:24:05.036Z,-0.68
2023-02-07T08:26:10.249Z,-0.57
2023-02-07T08:28:15.753Z,-0.56
2023-02-07T08:30:22.055Z,-0.63
2023-02-07T08:32:28.998Z,-0.58
2023-02-07T08:34:37.785Z,-0.55
2023-02-07T08:38:53.749Z,-0.44
2023-02-07T08:41:01.567Z,-0.42
2023-02-07T08:43:12.477Z,-0.34
2023-02-07T08:45:21.268Z,-0.31
2023-02-07T08:47:26.254Z,-0.27
2023-02-07T08:49:31.617Z,-0.31
2023-02-07T08:51:36.521Z,-0.29
2023-02-07T08:53:41.754Z,-0.27
2023-02-07T08:55:48.188Z,-0.23
2023-02-07T08:57:55.855Z,-0.17
2023-02-07T09:00:00.759Z,-0.09
2023-02-07T09:02:06.190Z,-0.16
2023-02-07T09:04:11.830Z,-0.09
2023-02-07T09:06:17.079Z,-0.04
2023-02-07T09:08:22.002Z,0.09
2023-02-07T09:10:27.696Z,0.14
2023-02-07T09:12:32.666Z,0.14
2023-02-07T09:14:41.003Z,0.14
2023-02-07T09:16:46.767Z,0.15
2023-02-07T09:18:52.004Z,0.12
2023-02-07T09:20:57.617Z,0.06
2023-02-07T09:23:15.312Z,0.09
2023-02-07T09:25:21.614Z,0.17
2023-02-07T09:27:29.832Z,0.24
2023-02-07T09:29:35.095Z,0.31
2023-02-07T09:31:47.673Z,0.46
2023-02-07T09:33:52.813Z,0.60
2023-02-07T09:35:57.661Z,0.55
2023-02-07T09:38:02.488Z,0.57
2023-02-07T09:40:09.353Z,0.58
2023-02-07T09:42:29.271Z,0.63
2023-02-07T09:44:50.975Z,0.78
2023-02-07T09:47:05.549Z,0.88
2023-02-07T09:49:20.156Z,0.97
2023-02-07T09:51:28.361Z,1.19
2023-02-07T09:53:43.525Z,1.19
2023-02-07T09:55:55.528Z,1.03
2023-02-07T09:58:04.892Z,1.05
2023-02-07T10:00:22.393Z,1.16
2023-02-07T10:02:41.990Z,1.11
2023-02-07T10:04:51.433Z,1.03
2023-02-07T10:06:58.882Z,0.98
2023-02-07T10:09:04.834Z,0.97
2023-02-07T10:11:20.117Z,1.14
2023-02-07T10:13:42.162Z,1.27
2023-02-07T10:16:01.134Z,1.28
2023-02-07T10:18:30.160Z,1.30
2023-02-07T10:20:41.473Z,1.02
2023-02-07T10:22:53.981Z,1.19
2023-02-07T10:25:30.756Z,1.12
2023-02-07T10:27:46.862Z,1.06
2023-02-07T10:30:00.169Z,1.24
2023-02-07T10:32:15.644Z,1.36
2023-02-07T10:34:26.624Z,1.35
2023-02-07T10:36:37.342Z,1.38
2023-02-07T10:38:56.717Z,1.29
2023-02-07T10:41:09.784Z,1.30
2023-02-07T10:43:23.636Z,1.28
2023-02-07T10:45:28.682Z,1.26
2023-02-07T10:47:38.102Z,1.32
2023-02-07T10:49:49.593Z,1.39
2023-02-07T10:51:56.645Z,1.49
2023-02-07T10:54:11.914Z,1.57
2023-02-07T10:56:26.080Z,1.86
2023-02-07T10:58:42.102Z,1.89
2023-02-07T11:00:51.885Z,1.85
2023-02-07T11:02:57.872Z,1.81
2023-02-07T11:05:08.737Z,1.88
2023-02-07T11:07:21.580Z,1.84
2023-02-07T11:09:27.670Z,1.73
2023-02-07T11:11:41.773Z,1.70
2023-02-07T11:13:55.666Z,1.79
2023-02-07T11:16:06.225Z,1.83
2023-02-07T11:18:11.482Z,1.94
2023-02-07T11:20:26.658Z,2.07
2023-02-07T11:22:33.804Z,2.14
2023-02-07T11:24:42.146Z,2.26
2023-02-07T11:27:00.420Z,2.10
2023-02-07T11:29:16.570Z,2.28
2023-02-07T11:31:26.863Z,2.35
2023-02-07T11:33:37.907Z,2.31
2023-02-07T11:36:07.634Z,2.59
2023-02-07T11:38:17.768Z,2.79
2023-02-07T11:40:29.875Z,2.91
2023-02-07T11:42:36.254Z,2.91
2023-02-07T11:44:45.569Z,2.87
2023-02-07T11:46:52.053Z,2.93
2023-02-07T11:49:02.592Z,3.12
2023-02-07T11:51:12.952Z,3.30
2023-02-07T11:53:30.293Z,3.38
2023-02-07T11:55:42.563Z,3.41
2023-02-07T11:57:49.450Z,3.42
2023-02-07T12:00:10.929Z,3.65
2023-02-07T12:02:24.626Z,3.64
2023-02-07T12:04:38.038Z,3.62
2023-02-07T12:06:53.750Z,3.55
2023-02-07T12:09:06.520Z,3.39
2023-02-07T12:11:18.830Z,3.61
2023-02-07T12:13:27.256Z,3.56
2023-02-07T12:15:40.634Z,3.54
2023-02-07T12:17:59.019Z,3.26
2023-02-07T12:20:10.636Z,3.44
2023-02-07T12:22:22.388Z,3.77
2023-02-07T12:24:32.992Z,3.54
2023-02-07T12:26:46.692Z,3.83
2023-02-07T12:29:12.841Z,3.67
2023-02-07T12:31:27.509Z,3.82
2023-02-07T12:33:39.245Z,3.90
2023-02-07T12:35:57.475Z,3.81
2023-02-07T12:38:18.712Z,3.73
2023-02-07T12:40:33.811Z,3.90
2023-02-07T12:42:43.547Z,4.06
2023-02-07T12:44:55.612Z,4.17
2023-02-07T12:47:09.846Z,4.17
2023-02-07T12:49:31.257Z,4.38
2023-02-07T12:54:51.020Z,4.50
2023-02-07T12:57:03.798Z,4.62
2023-02-07T12:59:18.485Z,4.54
2023-02-07T13:01:31.291Z,4.44
2023-02-07T13:03:57.020Z,4.59
2023-02-07T13:06:14.353Z,4.60
2023-02-07T13:08:33.782Z,4.77
2023-02-07T13:11:05.139Z,4.94
2023-02-07T13:13:19.298Z,4.77
2023-02-07T13:15:37.161Z,4.68
2023-02-07T13:17:55.669Z,4.58
2023-02-07T13:20:08.387Z,4.79
2023-02-07T13:22:24.508Z,4.72
2023-02-07T13:24:38.421Z,4.78
2023-02-07T13:26:52.246Z,4.87
2023-02-07T13:29:00.091Z,4.90
2023-02-07T13:31:07.813Z,4.88
2023-02-07T13:33:28.935Z,4.95
2023-02-07T13:35:38.552Z,4.92
2023-02-07T13:38:02.396Z,4.95
2023-02-07T13:40:21.167Z,4.99
2023-02-07T13:42:41.213Z,4.91
2023-02-07T13:44:55.522Z,4.88
2023-02-07T13:47:31.713Z,4.68
2023-02-07T13:49:50.686Z,4.80
2023-02-07T13:52:06.673Z,4.89
2023-02-07T13:54:28.645Z,4.76
2023-02-07T13:56:48.086Z,4.81
2023-02-07T13:59:26.223Z,5.03
2023-02-07T14:01:35.107Z,4.64
2023-02-07T14:03:40.821Z,4.79
2023-02-07T14:05:46.742Z,4.65
2023-02-07T14:08:00.036Z,4.77
2023-02-07T14:10:08.753Z,4.99
2023-02-07T14:12:23.098Z,4.98
2023-02-07T14:14:33.405Z,5.04
2023-02-07T14:16:53.888Z,5.27
2023-02-07T14:18:58.887Z,5.23
2023-02-07T14:21:05.149Z,5.21
2023-02-07T14:23:18.804Z,5.53
2023-02-07T14:25:29.036Z,5.65
2023-02-07T14:27:42.215Z,5.91
2023-02-07T14:30:04.813Z,5.84
2023-02-07T14:32:43.103Z,5.59
2023-02-07T14:35:03.866Z,5.56
2023-02-07T14:37:25.123Z,5.66
2023-02-07T14:39:34.423Z,5.46
2023-02-07T14:41:46.965Z,5.28
2023-02-07T14:44:07.917Z,5.19
2023-02-07T14:46:19.471Z,5.13
2023-02-07T14:48:42.746Z,4.71
2023-02-07T14:50:59.198Z,4.74
2023-02-07T14:53:07.208Z,4.81
2023-02-07T14:55:20.859Z,4.75
2023-02-07T14:57:36.493Z,4.56
2023-02-07T14:59:45.570Z,4.76
2023-02-07T15:01:53.822Z,4.91
2023-02-07T15:04:17.182Z,4.96
2023-02-07T15:06:32.151Z,4.83
2023-02-07T15:08:38.658Z,5.10
2023-02-07T15:10:50.768Z,5.00
2023-02-07T15:12:57.097Z,5.12
2023-02-07T15:15:02.453Z,5.21
2023-02-07T15:17:09.049Z,5.33
2023-02-07T15:19:24.677Z,5.30
2023-02-07T15:21:39.973Z,5.15
2023-02-07T15:24:01.259Z,5.10
2023-02-07T15:26:09.834Z,5.14
2023-02-07T15:28:27.378Z,5.31
2023-02-07T15:30:33.582Z,5.28
2023-02-07T15:32:46.690Z,5.04
2023-02-07T15:34:56.175Z,4.88
2023-02-07T15:37:03.618Z,4.80
2023-02-07T15:39:11.683Z,4.81
2023-02-07T15:41:20.097Z,4.63
2023-02-07T15:43:35.077Z,4.38
2023-02-07T15:45:42.189Z,4.27
2023-02-07T15:47:47.710Z,4.25
2023-02-07T15:50:02.563Z,4.24
2023-02-07T15:52:16.539Z,4.16
2023-02-07T15:54:21.859Z,4.07
2023-02-07T15:56:28.447Z,4.06
2023-02-07T15:58:38.101Z,3.76
2023-02-07T16:00:45.811Z,3.84
2023-02-07T16:02:59.739Z,3.83
2023-02-07T16:05:15.971Z,3.72
2023-02-07T16:07:24.765Z,3.74
2023-02-07T16:09:45.668Z,3.63
2023-02-07T16:11:55.805Z,3.60
2023-02-07T16:14:13.651Z,3.54
2023-02-07T16:16:25.153Z,3.57
2023-02-07T16:18:42.910Z,3.57
2023-02-07T16:20:53.417Z,3.41
2023-02-07T16:23:01.024Z,3.43
2023-02-07T16:25:06.979Z,3.38
2023-02-07T16:27:20.527Z,3.42
2023-02-07T16:29:27.889Z,3.32
2023-02-07T16:31:34.914Z,3.37
2023-02-07T16:33:40.087Z,3.30
2023-02-07T16:35:54.083Z,3.33
2023-02-07T16:37:59.117Z,3.22
2023-02-07T16:40:04.208Z,3.18
2023-02-07T16:42:16.704Z,3.01
2023-02-07T16:44:26.587Z,2.95
2023-02-07T16:46:32.319Z,2.98
2023-02-07T16:48:37.291Z,2.87
2023-02-07T16:50:43.162Z,2.76
2023-02-07T16:52:59.899Z,2.71
2023-02-07T16:55:06.540Z,2.61
2023-02-07T16:57:15.958Z,2.61
2023-02-07T16:59:25.783Z,2.52
2023-02-07T17:01:31.253Z,2.45
2023-02-07T17:03:38.385Z,2.44
2023-02-07T17:05:44.194Z,2.46
2023-02-07T17:07:52.377Z,2.47
2023-02-07T17:09:57.609Z,2.36
2023-02-07T17:12:02.820Z,2.32
2023-02-07T17:14:07.731Z,2.22
2023-02-07T17:16:15.555Z,2.19
2023-02-07T17:18:20.788Z,2.19
2023-02-07T17:20:30.673Z,2.14
2023-02-07T17:22:35.643Z,2.06
2023-02-07T17:24:46.577Z,1.98
2023-02-07T17:26:55.460Z,1.89
2023-02-07T17:29:00.875Z,1.84
2023-02-07T17:31:06.814Z,1.79
2023-02-07T17:33:16.592Z,1.68
2023-02-07T17:35:22.208Z,1.63
2023-02-07T17:37:26.905Z,1.58
2023-02-07T17:39:31.629Z,1.49
2023-02-07T17:41:41.361Z,1.46
2023-02-07T17:43:48.341Z,1.40
2023-02-07T17:45:53.130Z,1.39
2023-02-07T17:47:59.687Z,1.34
2023-02-07T17:50:05.020Z,1.29
2023-02-07T17:52:14.462Z,1.24
2023-02-07T17:54:19.232Z,1.15
2023-02-07T17:56:27.542Z,1.10
2023-02-07T17:58:38.072Z,1.06
2023-02-07T18:00:43.633Z,1.00
2023-02-07T18:02:51.602Z,0.92
2023-02-07T18:04:58.444Z,0.90
2023-02-07T18:07:03.308Z,0.85
2023-02-07T18:09:08.305Z,0.81
2023-02-07T18:11:17.511Z,0.76
2023-02-07T18:13:23.165Z,0.72
2023-02-07T18:15:31.387Z,0.72
2023-02-07T18:17:38.383Z,0.67
2023-02-07T18:19:43.664Z,0.61
2023-02-07T18:21:49.395Z,0.56
2023-02-07T18:23:55.406Z,0.57
2023-02-07T18:26:00.911Z,0.54
2023-02-07T18:28:06.269Z,0.50
2023-02-07T18:30:15.013Z,0.43
2023-02-07T18:32:22.603Z,0.38
2023-02-07T18:34:27.611Z,0.35
2023-02-07T18:36:40.298Z,0.49
2023-02-07T18:38:45.883Z,0.59
2023-02-07T18:40:53.664Z,0.56
2023-02-07T18:42:59.329Z,0.42
2023-02-07T18:45:04.158Z,0.36
2023-02-07T18:47:12.050Z,0.32
2023-02-07T18:49:19.432Z,0.25
2023-02-07T18:51:25.261Z,0.26
2023-02-07T18:53:32.444Z,0.36
2023-02-07T18:55:37.368Z,0.53
2023-02-07T18:57:42.399Z,0.60
2023-02-07T18:59:48.498Z,0.51
2023-02-07T19:01:54.505Z,0.39
2023-02-07T19:04:01.887Z,0.29
2023-02-07T19:06:10.690Z,0.23
2023-02-07T19:08:15.576Z,0.16
2023-02-07T19:10:20.549Z,0.11
2023-02-07T19:12:25.298Z,0.07
2023-02-07T19:14:32.123Z,0.02
2023-02-07T19:16:36.888Z,-0.01
2023-02-07T19:18:42.436Z,-0.06
2023-02-07T19:20:48.180Z,-0.08
2023-02-07T19:22:55.706Z,-0.15
2023-02-07T19:25:00.533Z,-0.16
2023-02-07T19:27:07.243Z,-0.20
2023-02-07T19:29:13.065Z,-0.23
2023-02-07T19:31:20.430Z,-0.25
2023-02-07T19:33:25.866Z,-0.23
2023-02-07T19:35:30.807Z,-0.23
2023-02-07T19:37:38.070Z,-0.22
2023-02-07T19:39:46.996Z,-0.23
2023-02-07T19:41:52.128Z,-0.19
2023-02-07T19:43:57.404Z,-0.19
2023-02-07T19:46:02.505Z,-0.18
2023-02-07T19:48:08.167Z,-0.20
2023-02-07T19:50:17.097Z,-0.23
2023-02-07T19:52:23.331Z,-0.28
2023-02-07T19:54:28.302Z,-0.36
2023-02-07T19:56:37.719Z,-0.44
2023-02-07T19:58:44.510Z,-0.49
2023-02-07T20:00:49.532Z,-0.53
2023-02-07T20:02:54.480Z,-0.57
2023-02-07T20:04:59.697Z,-0.60
2023-02-07T20:07:05.034Z,-0.63
2023-02-07T20:09:10.491Z,-0.68
2023-02-07T20:11:18.308Z,-0.73
2023-02-07T20:13:29.461Z,-0.71
2023-02-07T20:15:34.777Z,-0.72
2023-02-07T20:17:40.523Z,-0.72
2023-02-07T20:19:45.586Z,-0.74
2023-02-07T20:21:50.873Z,-0.74
2023-02-07T20:23:58.080Z,-0.76
2023-02-07T20:26:06.853Z,-0.77
2023-02-07T20:28:12.124Z,-0.81
2023-02-07T20:30:20.258Z,-0.82
2023-02-07T20:32:25.290Z,-0.84
2023-02-07T20:34:30.147Z,-0.89
2023-02-07T20:36:40.941Z,-0.91
2023-02-07T20:38:46.095Z,-0.93
2023-02-07T20:40:52.546Z,-0.94
2023-02-07T20:42:57.618Z,-0.97
2023-02-07T20:45:02.756Z,-1.01
2023-02-07T20:47:12.407Z,-0.98
2023-02-07T20:49:21.000Z,-1.05
2023-02-07T20:51:25.914Z,-1.12
2023-02-07T20:53:30.725Z,-1.14
2023-02-07T20:55:37.161Z,-1.17
2023-02-07T20:57:42.108Z,-1.22
2023-02-07T20:59:46.946Z,-1.25
2023-02-07T21:01:52.208Z,-1.26
2023-02-07T21:04:02.475Z,-1.31
2023-02-07T21:06:08.207Z,-1.37
2023-02-07T21:08:15.318Z,-1.42
2023-02-07T21:10:20.556Z,-1.39
2023-02-07T21:12:25.525Z,-1.39
2023-02-07T21:14:32.690Z,-1.43
2023-02-07T21:16:38.044Z,-1.45
2023-02-07T21:18:47.763Z,-1.46
2023-02-07T21:20:55.605Z,-1.51
2023-02-07T21:23:00.455Z,-1.51
2023-02-07T21:25:05.407Z,-1.57
2023-02-07T21:27:10.443Z,-1.57
2023-02-07T21:29:15.541Z,-1.58
2023-02-07T21:31:22.871Z,-1.59
2023-02-07T21:33:28.096Z,-1.58
2023-02-07T21:35:33.241Z,-1.59
2023-02-07T21:37:40.885Z,-1.63
2023-02-07T21:39:45.919Z,-1.63
2023-02-07T21:41:53.419Z,-1.68
2023-02-07T21:43:58.925Z,-1.66
2023-02-07T21:46:09.154Z,-1.70
2023-02-07T21:48:13.920Z,-1.72
2023-02-07T21:50:18.817Z,-1.78
2023-02-07T21:52:23.917Z,-1.76
2023-02-07T21:54:31.424Z,-1.81
2023-02-07T21:56:39.999Z,-1.80
2023-02-07T21:58:45.994Z,-1.79
2023-02-07T22:00:53.933Z,-1.77
2023-02-07T22:02:59.009Z,-1.77
2023-02-07T22:05:03.940Z,-1.78
2023-02-07T22:07:11.932Z,-1.76
2023-02-07T22:09:20.688Z,-1.79
2023-02-07T22:11:31.507Z,-1.82
2023-02-07T22:13:37.804Z,-1.84
2023-02-07T22:15:42.709Z,-1.88
2023-02-07T22:17:59.009Z,-1.91
2023-02-07T22:20:03.928Z,-1.95
2023-02-07T22:22:11.859Z,-1.97
2023-02-07T22:24:19.650Z,-1.98
2023-02-07T22:26:27.666Z,-1.96
2023-02-07T22:28:33.268Z,-1.98
2023-02-07T22:30:42.711Z,-1.97
2023-02-07T22:32:50.826Z,-1.98
2023-02-07T22:34:56.846Z,-1.98
2023-02-07T22:37:02.204Z,-2.05
2023-02-07T22:39:09.337Z,-2.01
2023-02-07T22:41:14.221Z,-2.08
2023-02-07T22:43:22.646Z,-2.11
2023-02-07T22:45:27.702Z,-2.11
2023-02-07T22:47:32.687Z,-2.16
2023-02-07T22:49:42.387Z,-2.22
2023-02-07T22:51:50.651Z,-2.25
2023-02-07T22:53:57.853Z,-2.25
2023-02-07T22:56:03.880Z,-2.29
2023-02-07T22:58:12.316Z,-2.29
2023-02-07T23:00:22.448Z,-2.29
2023-02-07T23:02:27.330Z,-2.26
2023-02-07T23:04:32.412Z,-2.28
2023-02-07T23:06:37.408Z,-2.27
2023-02-07T23:08:42.325Z,-2.31
2023-02-07T23:10:47.100Z,-2.34
2023-02-07T23:12:52.273Z,-2.34
2023-02-07T23:14:57.582Z,-2.38
2023-02-07T23:17:07.394Z,-2.39
2023-02-07T23:19:15.971Z,-2.41
2023-02-07T23:21:22.490Z,-2.41
2023-02-07T23:23:27.515Z,-2.43
2023-02-07T23:25:32.820Z,-2.49
2023-02-07T23:27:37.758Z,-2.42
2023-02-07T23:29:42.913Z,-2.50
2023-02-07T23:31:49.372Z,-2.51
2023-02-07T23:34:00.092Z,-2.58
2023-02-07T23:36:06.275Z,-2.59
2023-02-07T23:38:11.149Z,-2.59
2023-02-07T23:40:16.077Z,-2.51
2023-02-07T23:42:20.872Z,-2.58
2023-02-07T23:44:26.688Z,-2.57
2023-02-07T23:46:33.105Z,-2.55
2023-02-07T23:48:41.181Z,-2.52
2023-02-07T23:50:53.934Z,-2.53
2023-02-07T23:52:58.967Z,-2.56
2023-02-07T23:55:03.918Z,-2.60
2023-02-07T23:57:10.162Z,-2.66
2023-02-07T23:59:15.520Z,-2.63
